Time,TemperatureF,DewpointF,PressureIn,WindDirection,WindDirectionDegrees,WindSpeedMPH,WindSpeedGustMPH,Humidity,HourlyPrecipIn,Conditions,Clouds,dailyrainin,SoftwareType,DateUTC
2013-06-23 00:02:00,70.5,65.1,29.13,SE,135,0.0,0.0,83,0.00,,---,0.00,VWS V13.01,2013-06-23 05:02:00,
2013-06-23 00:07:00,70.5,65.1,29.14,SE,135,0.0,0.0,83,0.00,,---,0.00,VWS V13.01,2013-06-23 05:07:00,
2013-06-23 00:12:00,70.3,64.9,29.13,SE,135,0.0,0.0,83,0.10,,---,0.10,VWS V13.01,2013-06-23 05:12:00,
2013-06-23 00:17:00,70.1,64.7,29.18,WNW,292,0.4,0.4,83,0.14,,---,0.15,VWS V13.01,2013-06-23 05:17:00,
2013-06-23 00:22:00,69.9,64.8,29.18,NNW,338,0.0,0.0,84,0.14,,---,0.15,VWS V13.01,2013-06-23 05:22:00,
2013-06-23 00:27:00,70.1,65.4,29.14,North,0,0.0,0.0,85,0.14,,---,0.15,VWS V13.01,2013-06-23 05:27:00,
2013-06-23 00:32:00,70.3,65.6,29.16,SSE,158,0.0,0.0,85,0.14,,---,0.15,VWS V13.01,2013-06-23 05:32:00,
2013-06-23 00:37:00,70.3,65.6,29.15,SE,135,0.0,0.0,85,0.14,,---,0.15,VWS V13.01,2013-06-23 05:37:00,
2013-06-23 00:42:00,70.5,66.1,29.16,NNE,22,0.0,0.0,86,0.14,,---,0.15,VWS V13.01,2013-06-23 05:42:00,
2013-06-23 00:47:00,70.5,66.1,29.16,NNE,22,0.0,0.0,86,0.14,,---,0.15,VWS V13.01,2013-06-23 05:47:00,
2013-06-23 00:52:00,70.7,66.0,29.15,NNE,22,0.0,0.0,85,0.14,,---,0.15,VWS V13.01,2013-06-23 05:52:00,
2013-06-23 00:57:00,70.7,66.0,29.16,NNE,22,0.0,0.0,85,0.14,,---,0.15,VWS V13.01,2013-06-23 05:57:00,
2013-06-23 01:02:00,70.5,65.8,29.15,NNE,22,0.0,0.0,85,0.14,,---,0.15,VWS V13.01,2013-06-23 06:02:00,
2013-06-23 01:05:00,70.5,65.8,29.15,NNE,22,0.0,0.0,85,0.14,,---,0.15,VWS V13.01,2013-06-23 06:05:00,
2013-06-23 01:10:00,70.3,65.6,29.15,NNE,22,0.0,0.0,85,0.04,,---,0.15,VWS V13.01,2013-06-23 06:10:00,
2013-06-23 01:15:00,70.1,65.4,29.15,NNE,22,0.0,0.0,85,0.00,,---,0.15,VWS V13.01,2013-06-23 06:15:00,
2013-06-23 01:20:00,70.1,65.4,29.15,NNE,22,0.0,0.0,85,0.00,,---,0.15,VWS V13.01,2013-06-23 06:20:00,
2013-06-23 01:25:00,69.9,65.2,29.15,NNE,22,0.0,0.0,85,0.00,,---,0.15,VWS V13.01,2013-06-23 06:25:00,
2013-06-23 01:30:00,69.9,65.2,29.14,NNE,22,0.0,0.0,85,0.00,,---,0.15,VWS V13.01,2013-06-23 06:30:00,
2013-06-23 01:35:00,69.9,65.2,29.15,NNE,22,0.0,0.0,85,0.00,,---,0.15,VWS V13.01,2013-06-23 06:35:00,
2013-06-23 01:40:00,69.9,65.2,29.15,NNE,22,0.0,0.0,85,0.00,,---,0.15,VWS V13.01,2013-06-23 06:40:00,
2013-06-23 01:45:00,69.9,65.2,29.14,NE,45,0.0,0.0,85,0.00,,---,0.15,VWS V13.01,2013-06-23 06:45:00,
2013-06-23 01:50:00,69.9,65.2,29.14,SE,135,0.0,0.0,85,0.00,,---,0.15,VWS V13.01,2013-06-23 06:50:00,
2013-06-23 01:55:00,69.9,65.2,29.15,ESE,112,0.0,0.0,85,0.00,,---,0.15,VWS V13.01,2013-06-23 06:55:00,
2013-06-23 02:00:00,69.9,65.2,29.16,SSE,158,0.0,0.0,85,0.00,,---,0.15,VWS V13.01,2013-06-23 07:00:00,
2013-06-23 02:05:00,69.9,65.2,29.15,SE,135,0.0,0.0,85,0.00,,---,0.15,VWS V13.01,2013-06-23 07:05:00,
2013-06-23 02:10:00,69.9,65.2,29.16,SE,135,0.0,0.0,85,0.00,,---,0.15,VWS V13.01,2013-06-23 07:10:00,
2013-06-23 02:15:00,69.9,65.2,29.16,SE,135,0.0,0.0,85,0.00,,---,0.15,VWS V13.01,2013-06-23 07:15:00,
2013-06-23 02:20:00,69.8,65.1,29.16,SE,135,0.0,0.0,85,0.00,,---,0.15,VWS V13.01,2013-06-23 07:20:00,
2013-06-23 02:25:00,69.6,64.9,29.16,SE,135,0.0,0.0,85,0.00,,---,0.15,VWS V13.01,2013-06-23 07:25:00,
2013-06-23 02:30:00,69.6,64.9,29.16,SE,135,0.0,0.0,85,0.00,,---,0.15,VWS V13.01,2013-06-23 07:30:00,
2013-06-23 02:35:00,69.6,64.9,29.17,SE,135,0.0,0.0,85,0.00,,---,0.15,VWS V13.01,2013-06-23 07:35:00,
2013-06-23 02:40:00,69.4,64.7,29.17,SE,135,0.0,0.0,85,0.00,,---,0.15,VWS V13.01,2013-06-23 07:40:00,
2013-06-23 02:45:00,69.4,64.7,29.18,ESE,112,0.0,0.0,85,0.00,,---,0.15,VWS V13.01,2013-06-23 07:45:00,
2013-06-23 02:50:00,69.4,65.0,29.17,SE,135,0.0,0.0,86,0.00,,---,0.15,VWS V13.01,2013-06-23 07:50:00,
2013-06-23 02:55:00,69.4,65.0,29.17,SE,135,0.0,0.0,86,0.00,,---,0.15,VWS V13.01,2013-06-23 07:55:00,
2013-06-23 03:00:00,69.4,65.0,29.17,SE,135,0.0,0.0,86,0.00,,---,0.15,VWS V13.01,2013-06-23 08:00:00,
2013-06-23 03:05:00,69.2,64.8,29.17,SE,135,0.0,0.0,86,0.00,,---,0.15,VWS V13.01,2013-06-23 08:05:00,
2013-06-23 03:10:00,69.2,64.8,29.17,SSE,158,0.0,0.0,86,0.00,,---,0.15,VWS V13.01,2013-06-23 08:10:00,
2013-06-23 03:15:00,69.0,64.6,29.16,SE,135,0.0,0.0,86,0.00,,---,0.15,VWS V13.01,2013-06-23 08:15:00,
2013-06-23 03:20:00,69.0,64.6,29.16,SSE,158,0.0,0.0,86,0.00,,---,0.15,VWS V13.01,2013-06-23 08:20:00,
2013-06-23 03:25:00,68.9,64.6,29.16,SE,135,0.0,0.0,86,0.00,,---,0.15,VWS V13.01,2013-06-23 08:25:00,
2013-06-23 03:30:00,68.9,64.6,29.16,SE,135,0.0,0.0,86,0.00,,---,0.15,VWS V13.01,2013-06-23 08:30:00,
2013-06-23 03:35:00,68.7,64.0,29.16,SE,135,0.0,4.4,85,0.00,,---,0.15,VWS V13.01,2013-06-23 08:35:00,
2013-06-23 03:40:00,68.5,63.8,29.16,SE,135,0.0,0.0,85,0.00,,---,0.15,VWS V13.01,2013-06-23 08:40:00,
2013-06-23 03:45:00,68.5,63.8,29.16,SE,135,0.0,0.0,85,0.00,,---,0.15,VWS V13.01,2013-06-23 08:45:00,
2013-06-23 03:50:00,68.5,63.8,29.16,SE,135,7.6,7.6,85,0.00,,---,0.15,VWS V13.01,2013-06-23 08:50:00,
2013-06-23 03:55:00,68.3,63.6,29.15,SE,135,0.0,0.0,85,0.00,,---,0.15,VWS V13.01,2013-06-23 08:55:00,
2013-06-23 04:00:00,68.3,63.6,29.15,SE,135,2.2,2.2,85,0.00,,---,0.15,VWS V13.01,2013-06-23 09:00:00,
2013-06-23 04:05:00,68.1,63.4,29.15,SE,135,0.0,0.0,85,0.00,,---,0.15,VWS V13.01,2013-06-23 09:05:00,
2013-06-23 04:10:00,68.1,63.4,29.14,SE,135,7.6,7.6,85,0.00,,---,0.15,VWS V13.01,2013-06-23 09:10:00,
2013-06-23 04:15:00,67.8,63.1,29.14,SE,135,8.4,8.4,85,0.00,,---,0.15,VWS V13.01,2013-06-23 09:15:00,
2013-06-23 04:20:00,67.8,63.1,29.14,SE,135,5.8,5.8,85,0.00,,---,0.15,VWS V13.01,2013-06-23 09:20:00,
2013-06-23 04:25:00,67.8,63.1,29.14,SE,135,0.0,0.0,85,0.00,,---,0.15,VWS V13.01,2013-06-23 09:25:00,
2013-06-23 04:30:00,67.8,63.5,29.14,SE,135,0.0,0.0,86,0.00,,---,0.15,VWS V13.01,2013-06-23 09:30:00,
2013-06-23 04:35:00,67.6,63.3,29.14,South,180,0.0,5.8,86,0.00,,---,0.15,VWS V13.01,2013-06-23 09:35:00,
2013-06-23 04:40:00,67.6,63.3,29.13,SSE,158,4.4,4.4,86,0.00,,---,0.15,VWS V13.01,2013-06-23 09:40:00,
2013-06-23 04:45:00,67.6,63.3,29.12,SE,135,0.0,0.0,86,0.00,,---,0.15,VWS V13.01,2013-06-23 09:45:00,
2013-06-23 04:50:00,67.6,63.3,29.12,ESE,112,0.0,10.6,86,0.00,,---,0.15,VWS V13.01,2013-06-23 09:50:00,
2013-06-23 04:55:00,67.6,63.3,29.11,SSE,158,3.0,3.0,86,0.00,,---,0.15,VWS V13.01,2013-06-23 09:55:00,
2013-06-23 05:00:00,67.4,63.1,29.11,SSE,158,0.0,0.0,86,0.00,,---,0.15,VWS V13.01,2013-06-23 10:00:00,
2013-06-23 05:05:00,67.2,62.9,29.11,SSE,158,13.4,22.2,86,0.00,,---,0.15,VWS V13.01,2013-06-23 10:05:00,
2013-06-23 05:10:00,67.4,63.1,29.10,SE,135,13.4,13.4,86,0.00,,---,0.15,VWS V13.01,2013-06-23 10:10:00,
2013-06-23 05:15:00,67.4,63.1,29.10,SE,135,0.0,0.0,86,0.00,,---,0.15,VWS V13.01,2013-06-23 10:15:00,
2013-06-23 05:20:00,67.4,63.1,29.10,SE,135,8.4,10.2,86,0.00,,---,0.15,VWS V13.01,2013-06-23 10:20:00,
2013-06-23 05:25:00,67.6,62.9,29.10,SE,135,23.6,23.6,85,0.00,,---,0.15,VWS V13.01,2013-06-23 10:25:00,
2013-06-23 05:30:00,67.6,62.9,29.10,ESE,112,2.6,2.6,85,0.00,,---,0.15,VWS V13.01,2013-06-23 10:30:00,
2013-06-23 05:35:00,67.6,62.9,29.10,SE,135,1.2,1.2,85,0.00,,---,0.15,VWS V13.01,2013-06-23 10:35:00,
2013-06-23 05:40:00,67.6,62.9,29.10,SE,135,1.2,8.0,85,0.00,,---,0.15,VWS V13.01,2013-06-23 10:40:00,
2013-06-23 05:45:00,67.6,62.9,29.11,SE,135,0.0,0.0,85,0.00,,---,0.15,VWS V13.01,2013-06-23 10:45:00,
2013-06-23 05:50:00,67.6,62.9,29.12,SE,135,12.4,12.4,85,0.00,,---,0.15,VWS V13.01,2013-06-23 10:50:00,
2013-06-23 05:55:00,67.6,62.9,29.12,SE,135,0.0,14.6,85,0.00,,---,0.15,VWS V13.01,2013-06-23 10:55:00,
2013-06-23 06:00:00,67.6,62.9,29.13,SE,135,15.2,15.2,85,0.00,,---,0.15,VWS V13.01,2013-06-23 11:00:00,
2013-06-23 06:05:00,67.8,63.1,29.12,SE,135,0.0,14.2,85,0.00,,---,0.15,VWS V13.01,2013-06-23 11:05:00,
2013-06-23 06:10:00,67.8,63.1,29.12,SSE,158,0.0,0.0,85,0.00,,---,0.15,VWS V13.01,2013-06-23 11:10:00,
2013-06-23 06:15:00,67.8,63.1,29.12,ESE,112,3.4,3.4,85,0.00,,---,0.15,VWS V13.01,2013-06-23 11:15:00,
2013-06-23 06:20:00,68.1,63.4,29.11,SSE,158,0.0,8.4,85,0.00,,---,0.15,VWS V13.01,2013-06-23 11:20:00,
2013-06-23 06:25:00,68.1,63.4,29.10,SE,135,0.0,0.0,85,0.00,,---,0.15,VWS V13.01,2013-06-23 11:25:00,
2013-06-23 06:30:00,68.3,63.6,29.10,ESE,112,0.0,0.0,85,0.00,,---,0.15,VWS V13.01,2013-06-23 11:30:00,
2013-06-23 06:36:00,68.5,63.8,29.10,SE,135,6.6,6.6,85,0.00,,---,0.15,VWS V13.01,2013-06-23 11:36:00,
2013-06-23 06:41:00,68.7,64.0,29.10,SE,135,4.8,4.8,85,0.00,,---,0.15,VWS V13.01,2013-06-23 11:41:00,
2013-06-23 06:46:00,68.7,64.3,29.10,SE,135,0.0,0.0,86,0.00,,---,0.15,VWS V13.01,2013-06-23 11:46:00,
2013-06-23 06:51:00,68.9,64.2,29.10,SE,135,2.6,2.6,85,0.00,,---,0.15,VWS V13.01,2013-06-23 11:51:00,
2013-06-23 06:56:00,69.0,64.3,29.10,SE,135,8.0,8.0,85,0.00,,---,0.15,VWS V13.01,2013-06-23 11:56:00,
2013-06-23 07:01:00,69.4,64.7,29.11,SE,135,0.0,10.6,85,0.00,,---,0.15,VWS V13.01,2013-06-23 12:01:00,
2013-06-23 07:06:00,69.6,64.9,29.11,SE,135,2.6,2.6,85,0.00,,---,0.15,VWS V13.01,2013-06-23 12:06:00,
2013-06-23 07:11:00,69.6,64.9,29.10,SE,135,9.8,9.8,85,0.00,,---,0.15,VWS V13.01,2013-06-23 12:11:00,
2013-06-23 07:16:00,70.1,65.4,29.10,SE,135,14.6,14.6,85,0.00,,---,0.15,VWS V13.01,2013-06-23 12:16:00,
2013-06-23 07:21:00,70.3,65.6,29.10,SE,135,7.0,7.0,85,0.00,,---,0.15,VWS V13.01,2013-06-23 12:21:00,
2013-06-23 07:26:00,70.5,65.8,29.10,SSE,158,5.8,5.8,85,0.00,,---,0.15,VWS V13.01,2013-06-23 12:26:00,
2013-06-23 07:31:00,70.7,66.0,29.10,SE,135,2.6,3.4,85,0.00,,---,0.15,VWS V13.01,2013-06-23 12:31:00,
2013-06-23 07:36:00,70.8,66.1,29.10,SE,135,0.0,0.0,85,0.00,,---,0.15,VWS V13.01,2013-06-23 12:36:00,
2013-06-23 07:41:00,70.8,66.1,29.10,SSE,158,14.6,14.6,85,0.00,,---,0.15,VWS V13.01,2013-06-23 12:41:00,
2013-06-23 07:46:00,71.2,66.5,29.11,SE,135,25.0,25.0,85,0.00,,---,0.15,VWS V13.01,2013-06-23 12:46:00,
2013-06-23 07:52:00,71.4,66.7,29.11,SE,135,0.0,15.2,85,0.00,,---,0.15,VWS V13.01,2013-06-23 12:52:00,
2013-06-23 07:57:00,71.4,66.7,29.11,South,180,0.0,12.4,85,0.00,,---,0.15,VWS V13.01,2013-06-23 12:57:00,
2013-06-23 08:02:00,71.4,66.3,29.12,SE,135,1.6,1.6,84,0.00,,---,0.15,VWS V13.01,2013-06-23 13:02:00,
2013-06-23 08:07:00,71.6,66.5,29.12,SSE,158,0.0,6.2,84,0.00,,---,0.15,VWS V13.01,2013-06-23 13:07:00,
2013-06-23 08:12:00,71.4,66.3,29.12,SE,135,6.2,14.6,84,0.00,,---,0.15,VWS V13.01,2013-06-23 13:12:00,
2013-06-23 08:17:00,71.4,66.3,29.13,SE,135,9.2,9.2,84,0.00,,---,0.15,VWS V13.01,2013-06-23 13:17:00,
2013-06-23 08:22:00,71.2,66.1,29.15,SSE,158,0.0,0.0,84,0.00,,---,0.15,VWS V13.01,2013-06-23 13:22:00,
2013-06-23 08:27:00,71.2,66.1,29.14,SSW,202,0.0,4.8,84,0.00,,---,0.15,VWS V13.01,2013-06-23 13:27:00,
2013-06-23 08:32:00,71.0,66.3,29.14,SSE,158,21.0,21.0,85,0.02,,---,0.17,VWS V13.01,2013-06-23 13:32:00,
2013-06-23 08:37:00,70.5,65.8,29.14,SE,135,0.0,0.0,85,0.04,,---,0.19,VWS V13.01,2013-06-23 13:37:00,
2013-06-23 08:42:00,70.3,65.6,29.14,SE,135,7.0,8.4,85,0.08,,---,0.22,VWS V13.01,2013-06-23 13:42:00,
2013-06-23 08:47:00,69.9,64.8,29.13,SE,135,0.0,0.0,84,0.08,,---,0.22,VWS V13.01,2013-06-23 13:47:00,
2013-06-23 08:52:00,69.8,64.8,29.14,SE,135,0.0,0.0,84,0.08,,---,0.22,VWS V13.01,2013-06-23 13:52:00,
2013-06-23 08:57:00,69.4,64.4,29.14,SE,135,0.0,0.0,84,0.08,,---,0.22,VWS V13.01,2013-06-23 13:57:00,
2013-06-23 09:02:00,69.2,64.2,29.14,SE,135,0.0,0.0,84,0.08,,---,0.22,VWS V13.01,2013-06-23 14:02:00,
2013-06-23 09:07:00,69.0,64.0,29.14,SE,135,0.0,0.0,84,0.08,,---,0.22,VWS V13.01,2013-06-23 14:07:00,
2013-06-23 09:12:00,68.7,63.7,29.14,SE,135,0.0,0.0,84,0.08,,---,0.22,VWS V13.01,2013-06-23 14:12:00,
2013-06-23 09:17:00,68.5,63.5,29.14,SSE,158,4.8,4.8,84,0.08,,---,0.22,VWS V13.01,2013-06-23 14:17:00,
2013-06-23 09:22:00,68.1,63.1,29.14,SE,135,0.0,0.0,84,0.08,,---,0.22,VWS V13.01,2013-06-23 14:22:00,
2013-06-23 09:27:00,67.8,62.8,29.14,SSE,158,0.0,0.0,84,0.08,,---,0.22,VWS V13.01,2013-06-23 14:27:00,
2013-06-23 09:32:00,67.8,62.8,29.14,SSE,158,2.2,2.2,84,0.04,,---,0.22,VWS V13.01,2013-06-23 14:32:00,
2013-06-23 09:37:00,67.6,62.6,29.14,SSE,158,0.0,0.0,84,0.04,,---,0.22,VWS V13.01,2013-06-23 14:37:00,
2013-06-23 09:43:00,67.6,62.6,29.14,SSE,158,0.0,0.0,84,0.00,,---,0.22,VWS V13.01,2013-06-23 14:43:00,
2013-06-23 09:48:00,67.6,62.9,29.13,SSE,158,0.0,0.0,85,0.00,,---,0.22,VWS V13.01,2013-06-23 14:48:00,
2013-06-23 09:53:00,67.4,62.7,29.12,SE,135,0.0,0.0,85,0.00,,---,0.22,VWS V13.01,2013-06-23 14:53:00,
2013-06-23 09:58:00,67.2,62.5,29.12,SE,135,0.0,0.0,85,0.00,,---,0.22,VWS V13.01,2013-06-23 14:58:00,
2013-06-23 10:03:00,67.6,62.9,29.11,SE,135,0.0,0.0,85,0.00,,---,0.22,VWS V13.01,2013-06-23 15:03:00,
2013-06-23 10:08:00,67.6,62.9,29.08,SE,135,0.0,0.0,85,0.00,,---,0.22,VWS V13.01,2013-06-23 15:08:00,
2013-06-23 10:14:00,67.6,62.9,29.08,ENE,68,0.0,0.0,85,0.00,,---,0.22,VWS V13.01,2013-06-23 15:14:00,
2013-06-23 10:19:00,67.6,62.9,29.05,SE,135,0.0,0.0,85,0.00,,---,0.22,VWS V13.01,2013-06-23 15:19:00,
2013-06-23 10:24:00,67.2,62.5,28.99,SE,135,0.0,22.8,85,0.00,,---,0.22,VWS V13.01,2013-06-23 15:24:00,
2013-06-23 10:29:00,67.2,62.5,29.01,SE,135,0.0,0.0,85,0.00,,---,0.22,VWS V13.01,2013-06-23 15:29:00,
2013-06-23 10:34:00,67.2,62.5,29.04,SE,135,2.6,2.6,85,0.00,,---,0.22,VWS V13.01,2013-06-23 15:34:00,
2013-06-23 10:39:00,67.2,62.5,29.05,SE,135,0.0,0.0,85,0.00,,---,0.22,VWS V13.01,2013-06-23 15:39:00,
2013-06-23 10:44:00,67.2,62.5,29.07,ESE,112,6.6,6.6,85,0.00,,---,0.22,VWS V13.01,2013-06-23 15:44:00,
2013-06-23 10:49:00,67.2,62.5,29.07,SE,135,0.0,0.0,85,0.00,,---,0.22,VWS V13.01,2013-06-23 15:49:00,
2013-06-23 10:54:00,67.2,62.5,29.07,ESE,112,0.0,10.2,85,0.00,,---,0.22,VWS V13.01,2013-06-23 15:54:00,
2013-06-23 11:01:00,67.2,62.5,29.06,SE,135,0.0,0.0,85,0.00,,---,0.22,VWS V13.01,2013-06-23 16:01:00,
2013-06-23 11:06:00,67.2,62.5,29.07,SSE,158,21.0,21.0,85,0.00,,---,0.22,VWS V13.01,2013-06-23 16:06:00,
2013-06-23 11:11:00,67.2,62.5,29.07,ESE,112,0.0,0.0,85,0.00,,---,0.22,VWS V13.01,2013-06-23 16:11:00,
2013-06-23 11:16:00,67.2,62.5,29.07,SSE,158,16.4,16.4,85,0.00,,---,0.22,VWS V13.01,2013-06-23 16:16:00,
2013-06-23 11:21:00,67.2,62.5,29.06,SE,135,16.4,16.4,85,0.00,,---,0.22,VWS V13.01,2013-06-23 16:21:00,
2013-06-23 11:26:00,67.2,62.5,29.07,SE,135,0.0,0.0,85,0.00,,---,0.22,VWS V13.01,2013-06-23 16:26:00,
2013-06-23 11:32:00,67.2,62.5,29.08,SSE,158,12.4,12.4,85,0.00,,---,0.22,VWS V13.01,2013-06-23 16:32:00,
2013-06-23 11:38:00,67.2,62.5,29.09,SE,135,0.0,0.0,85,0.00,,---,0.22,VWS V13.01,2013-06-23 16:38:00,
2013-06-23 11:43:00,67.2,62.2,29.10,SSE,158,0.0,0.0,84,0.00,,---,0.22,VWS V13.01,2013-06-23 16:43:00,
2013-06-23 11:48:00,67.6,62.6,29.11,SE,135,0.0,0.0,84,0.00,,---,0.22,VWS V13.01,2013-06-23 16:48:00,
2013-06-23 11:53:00,67.6,62.6,29.10,SE,135,0.0,0.0,84,0.00,,---,0.22,VWS V13.01,2013-06-23 16:53:00,
2013-06-23 11:58:00,67.8,62.8,29.11,SE,135,0.0,0.0,84,0.00,,---,0.22,VWS V13.01,2013-06-23 16:58:00,
2013-06-23 12:03:00,68.0,63.0,29.10,SE,135,21.8,21.8,84,0.00,,---,0.22,VWS V13.01,2013-06-23 17:03:00,
2013-06-23 12:04:00,68.0,63.0,29.10,SE,135,21.8,21.8,84,0.00,,---,0.22,VWS V13.01,2013-06-23 17:04:00,
2013-06-23 12:09:00,68.3,62.9,29.11,SSW,202,0.0,0.0,83,0.00,,---,0.22,VWS V13.01,2013-06-23 17:09:00,
2013-06-23 12:11:00,68.3,62.9,29.12,SSW,202,0.0,0.0,83,0.00,,---,0.22,VWS V13.01,2013-06-23 17:11:00,
2013-06-23 12:17:00,68.5,63.1,29.12,South,180,13.4,13.4,83,0.00,,---,0.22,VWS V13.01,2013-06-23 17:17:00,
2013-06-23 12:22:00,69.0,63.6,29.13,SW,225,0.0,0.0,83,0.00,,---,0.22,VWS V13.01,2013-06-23 17:22:00,
2013-06-23 12:27:00,69.4,63.7,29.13,SSW,202,8.4,8.4,82,0.00,,---,0.22,VWS V13.01,2013-06-23 17:27:00,
2013-06-23 12:32:00,69.6,63.5,29.13,SW,225,0.0,0.0,81,0.00,,---,0.22,VWS V13.01,2013-06-23 17:32:00,
2013-06-23 12:37:00,70.3,64.2,29.13,South,180,0.0,13.4,81,0.00,,---,0.22,VWS V13.01,2013-06-23 17:37:00,
2013-06-23 12:42:00,70.5,64.0,29.13,SSW,202,0.0,0.0,80,0.00,,---,0.22,VWS V13.01,2013-06-23 17:42:00,
2013-06-23 12:47:00,70.7,64.6,29.13,SSW,202,0.0,0.0,81,0.00,,---,0.22,VWS V13.01,2013-06-23 17:47:00,
2013-06-23 12:52:00,70.8,64.3,29.13,South,180,0.0,0.0,80,0.00,,---,0.22,VWS V13.01,2013-06-23 17:52:00,
2013-06-23 12:57:00,71.2,64.4,29.13,SSW,202,1.2,1.2,79,0.00,,---,0.22,VWS V13.01,2013-06-23 17:57:00,
2013-06-23 13:02:00,71.4,64.6,29.13,WSW,248,0.0,0.0,79,0.00,,---,0.22,VWS V13.01,2013-06-23 18:02:00,
2013-06-23 13:07:00,71.7,64.8,29.13,SSW,202,9.8,9.8,79,0.00,,---,0.22,VWS V13.01,2013-06-23 18:07:00,
2013-06-23 13:12:00,71.9,65.0,29.14,SSE,158,0.0,0.0,79,0.00,,---,0.22,VWS V13.01,2013-06-23 18:12:00,
2013-06-23 13:17:00,72.1,65.2,29.14,SSE,158,0.0,0.0,79,0.00,,---,0.22,VWS V13.01,2013-06-23 18:17:00,
2013-06-23 13:22:00,72.5,65.3,29.14,SSW,202,0.0,2.2,78,0.00,,---,0.22,VWS V13.01,2013-06-23 18:22:00,
2013-06-23 13:27:00,72.8,65.6,29.14,SSW,202,2.2,2.2,78,0.00,,---,0.22,VWS V13.01,2013-06-23 18:27:00,
2013-06-23 13:32:00,73.2,65.9,29.14,South,180,6.2,6.2,78,0.00,,---,0.22,VWS V13.01,2013-06-23 18:32:00,
2013-06-23 13:37:00,73.7,66.1,29.13,SSE,158,1.6,7.0,77,0.00,,---,0.22,VWS V13.01,2013-06-23 18:37:00,
2013-06-23 13:42:00,73.9,66.2,29.13,South,180,0.0,0.0,77,0.00,,---,0.22,VWS V13.01,2013-06-23 18:42:00,
2013-06-23 13:47:00,74.3,66.2,29.13,West,270,0.0,0.0,76,0.00,,---,0.22,VWS V13.01,2013-06-23 18:47:00,
2013-06-23 13:52:00,74.8,66.7,29.13,SSE,158,0.0,0.0,76,0.00,,---,0.22,VWS V13.01,2013-06-23 18:52:00,
2013-06-23 13:57:00,75.0,66.9,29.13,SSW,202,0.0,0.0,76,0.00,,---,0.22,VWS V13.01,2013-06-23 18:57:00,
2013-06-23 14:02:00,75.3,66.8,29.13,SW,225,0.0,0.0,75,0.00,,---,0.22,VWS V13.01,2013-06-23 19:02:00,
2013-06-23 14:07:00,75.7,66.4,29.13,West,270,0.0,0.0,73,0.00,,---,0.22,VWS V13.01,2013-06-23 19:07:00,
2013-06-23 14:12:00,75.9,66.6,29.13,SW,225,0.8,0.8,73,0.00,,---,0.22,VWS V13.01,2013-06-23 19:12:00,
2013-06-23 14:17:00,75.9,66.6,29.13,SW,225,0.0,0.0,73,0.00,,---,0.22,VWS V13.01,2013-06-23 19:17:00,
2013-06-23 14:22:00,76.2,66.9,29.13,SSW,202,0.0,4.4,73,0.00,,---,0.22,VWS V13.01,2013-06-23 19:22:00,
2013-06-23 14:28:00,76.6,66.9,29.13,West,270,2.6,2.6,72,0.00,,---,0.22,VWS V13.01,2013-06-23 19:28:00,
2013-06-23 14:33:00,77.0,66.5,29.13,SW,225,23.2,23.2,70,0.00,,---,0.22,VWS V13.01,2013-06-23 19:33:00,
2013-06-23 14:38:00,77.1,66.2,29.12,WNW,292,0.0,0.0,69,0.00,,---,0.22,VWS V13.01,2013-06-23 19:38:00,
2013-06-23 14:44:00,77.5,66.9,29.13,South,180,14.6,14.6,70,0.00,,---,0.22,VWS V13.01,2013-06-23 19:44:00,
2013-06-23 14:49:00,77.5,66.5,29.13,SW,225,17.0,17.0,69,0.00,,---,0.22,VWS V13.01,2013-06-23 19:49:00,
2013-06-23 14:54:00,78.0,67.0,29.12,SE,135,0.0,0.0,69,0.00,,---,0.22,VWS V13.01,2013-06-23 19:54:00,
2013-06-23 15:00:00,78.4,67.0,29.12,SSE,158,0.0,0.0,68,0.00,,---,0.22,VWS V13.01,2013-06-23 20:00:00,
2013-06-23 15:05:00,78.9,67.0,29.12,SSE,158,5.8,9.8,67,0.00,,---,0.22,VWS V13.01,2013-06-23 20:05:00,
2013-06-23 15:10:00,79.1,67.2,29.12,SW,225,25.8,25.8,67,0.00,,---,0.22,VWS V13.01,2013-06-23 20:10:00,
2013-06-23 15:15:00,79.3,67.4,29.12,SSW,202,0.0,0.0,67,0.00,,---,0.22,VWS V13.01,2013-06-23 20:15:00,
2013-06-23 15:20:00,79.5,67.2,29.12,South,180,17.0,17.0,66,0.00,,---,0.22,VWS V13.01,2013-06-23 20:20:00,
2013-06-23 15:26:00,79.5,67.2,29.12,SSW,202,0.0,16.4,66,0.00,,---,0.22,VWS V13.01,2013-06-23 20:26:00,
2013-06-23 15:31:00,79.8,67.4,29.12,SE,135,14.6,14.6,66,0.00,,---,0.22,VWS V13.01,2013-06-23 20:31:00,
2013-06-23 15:36:00,80.2,67.8,29.12,South,180,10.2,10.2,66,0.00,,---,0.22,VWS V13.01,2013-06-23 20:36:00,
2013-06-23 15:41:00,80.4,68.0,29.11,SSE,158,10.2,10.2,66,0.00,,---,0.22,VWS V13.01,2013-06-23 20:41:00,
2013-06-23 15:46:00,80.9,68.0,29.12,SSE,158,8.4,12.8,65,0.00,,---,0.22,VWS V13.01,2013-06-23 20:46:00,
2013-06-23 15:51:00,80.9,68.0,29.12,SSE,158,0.0,0.0,65,0.00,,---,0.22,VWS V13.01,2013-06-23 20:51:00,
2013-06-23 15:56:00,81.1,68.2,29.12,SSE,158,0.0,0.0,65,0.00,,---,0.22,VWS V13.01,2013-06-23 20:56:00,
2013-06-23 16:01:00,81.5,68.6,29.11,South,180,0.0,0.0,65,0.00,,---,0.22,VWS V13.01,2013-06-23 21:01:00,
2013-06-23 16:06:00,81.6,68.7,29.11,SSW,202,0.0,0.0,65,0.00,,---,0.22,VWS V13.01,2013-06-23 21:06:00,
2013-06-23 16:12:00,81.5,68.2,29.12,SSW,202,0.0,0.0,64,0.00,,---,0.22,VWS V13.01,2013-06-23 21:12:00,
2013-06-23 16:17:00,81.5,68.2,29.11,South,180,12.8,12.8,64,0.00,,---,0.22,VWS V13.01,2013-06-23 21:17:00,
2013-06-23 16:22:00,81.5,68.2,29.11,SSE,158,0.0,1.6,64,0.00,,---,0.22,VWS V13.01,2013-06-23 21:22:00,
2013-06-23 16:27:00,81.6,68.2,29.11,SSW,202,25.4,25.4,64,0.00,,---,0.22,VWS V13.01,2013-06-23 21:27:00,
2013-06-23 16:32:00,81.5,68.2,29.12,South,180,0.0,0.0,64,0.00,,---,0.22,VWS V13.01,2013-06-23 21:32:00,
2013-06-23 16:37:00,81.5,68.2,29.12,SSE,158,2.6,18.6,64,0.00,,---,0.22,VWS V13.01,2013-06-23 21:37:00,
2013-06-23 16:42:00,81.3,68.0,29.12,SW,225,4.8,4.8,64,0.00,,---,0.22,VWS V13.01,2013-06-23 21:42:00,
2013-06-23 16:47:00,81.3,68.0,29.12,SE,135,0.0,0.0,64,0.00,,---,0.22,VWS V13.01,2013-06-23 21:47:00,
2013-06-23 16:52:00,81.1,67.8,29.12,South,180,25.0,25.0,64,0.00,,---,0.22,VWS V13.01,2013-06-23 21:52:00,
2013-06-23 16:57:00,80.9,67.6,29.13,SSW,202,44.6,44.6,64,0.00,,---,0.22,VWS V13.01,2013-06-23 21:57:00,
2013-06-23 17:02:00,80.7,67.4,29.13,SSE,158,0.0,0.0,64,0.00,,---,0.22,VWS V13.01,2013-06-23 22:02:00,
2013-06-23 17:07:00,80.6,67.8,29.13,SSE,158,0.0,0.0,65,0.00,,---,0.22,VWS V13.01,2013-06-23 22:07:00,
2013-06-23 17:12:00,80.7,67.8,29.14,South,180,0.0,0.0,65,0.00,,---,0.22,VWS V13.01,2013-06-23 22:12:00,
2013-06-23 17:17:00,80.4,68.0,29.14,SSW,202,16.0,16.0,66,0.00,,---,0.22,VWS V13.01,2013-06-23 22:17:00,
2013-06-23 17:22:00,80.4,68.0,29.14,SSE,158,0.0,0.0,66,0.00,,---,0.22,VWS V13.01,2013-06-23 22:22:00,
2013-06-23 17:27:00,80.2,67.8,29.14,SSW,202,0.0,0.0,66,0.00,,---,0.22,VWS V13.01,2013-06-23 22:27:00,
2013-06-23 17:32:00,80.2,68.3,29.15,South,180,0.0,0.0,67,0.00,,---,0.22,VWS V13.01,2013-06-23 22:32:00,
2013-06-23 17:37:00,80.2,68.3,29.14,South,180,6.2,6.2,67,0.00,,---,0.22,VWS V13.01,2013-06-23 22:37:00,
2013-06-23 17:42:00,80.2,68.3,29.15,South,180,0.0,0.0,67,0.00,,---,0.22,VWS V13.01,2013-06-23 22:42:00,
2013-06-23 17:47:00,80.2,68.3,29.15,South,180,0.0,0.0,67,0.00,,---,0.22,VWS V13.01,2013-06-23 22:47:00,
2013-06-23 17:52:00,80.2,68.3,29.15,South,180,0.0,0.0,67,0.00,,---,0.22,VWS V13.01,2013-06-23 22:52:00,
2013-06-23 17:57:00,80.2,68.3,29.15,South,180,0.0,0.0,67,0.00,,---,0.22,VWS V13.01,2013-06-23 22:57:00,
2013-06-23 18:02:00,80.2,68.3,29.15,South,180,11.6,11.6,67,0.00,,---,0.22,VWS V13.01,2013-06-23 23:02:00,
2013-06-23 18:07:00,80.2,68.3,29.15,SSW,202,0.0,0.0,67,0.00,,---,0.22,VWS V13.01,2013-06-23 23:07:00,
2013-06-23 18:12:00,80.2,68.7,29.15,SSW,202,11.6,11.6,68,0.00,,---,0.22,VWS V13.01,2013-06-23 23:12:00,
2013-06-23 18:17:00,80.0,68.5,29.16,SSW,202,0.0,0.0,68,0.00,,---,0.22,VWS V13.01,2013-06-23 23:17:00,
2013-06-23 18:22:00,79.8,68.3,29.16,SSW,202,2.6,2.6,68,0.00,,---,0.22,VWS V13.01,2013-06-23 23:22:00,
2013-06-23 18:27:00,79.7,68.6,29.15,South,180,0.0,0.0,69,0.00,,---,0.22,VWS V13.01,2013-06-23 23:27:00,
2013-06-23 18:32:00,79.7,68.6,29.16,SSW,202,0.0,0.0,69,0.00,,---,0.22,VWS V13.01,2013-06-23 23:32:00,
2013-06-23 18:37:00,79.7,68.6,29.16,South,180,9.8,9.8,69,0.00,,---,0.22,VWS V13.01,2013-06-23 23:37:00,
2013-06-23 18:42:00,79.7,69.1,29.15,South,180,0.0,0.0,70,0.00,,---,0.22,VWS V13.01,2013-06-23 23:42:00,
2013-06-23 18:47:00,79.7,69.1,29.16,SSW,202,0.0,9.2,70,0.00,,---,0.22,VWS V13.01,2013-06-23 23:47:00,
2013-06-23 18:52:00,79.5,68.4,29.16,SSW,202,0.0,0.0,69,0.00,,---,0.22,VWS V13.01,2013-06-23 23:52:00,
2013-06-23 18:57:00,79.5,68.4,29.16,South,180,0.0,0.0,69,0.00,,---,0.22,VWS V13.01,2013-06-23 23:57:00,
2013-06-23 19:02:00,79.5,68.4,29.16,South,180,0.0,0.0,69,0.00,,---,0.22,VWS V13.01,2013-06-24 00:02:00,
2013-06-23 19:07:00,79.3,68.3,29.16,South,180,2.6,2.6,69,0.00,,---,0.22,VWS V13.01,2013-06-24 00:07:00,
2013-06-23 19:12:00,79.3,68.3,29.16,South,180,0.0,3.4,69,0.00,,---,0.22,VWS V13.01,2013-06-24 00:12:00,
2013-06-23 19:17:00,79.3,68.3,29.16,South,180,0.0,0.0,69,0.00,,---,0.22,VWS V13.01,2013-06-24 00:17:00,
2013-06-23 19:22:00,79.3,68.3,29.16,South,180,0.0,0.0,69,0.00,,---,0.22,VWS V13.01,2013-06-24 00:22:00,
2013-06-23 19:27:00,79.3,68.3,29.17,SSW,202,0.0,0.0,69,0.00,,---,0.22,VWS V13.01,2013-06-24 00:27:00,
2013-06-23 19:32:00,79.3,68.3,29.17,SSW,202,0.0,0.0,69,0.00,,---,0.22,VWS V13.01,2013-06-24 00:32:00,
2013-06-23 19:37:00,79.3,68.3,29.17,SSW,202,0.0,0.0,69,0.00,,---,0.22,VWS V13.01,2013-06-24 00:37:00,
2013-06-23 19:42:00,79.3,68.3,29.17,SSW,202,0.0,0.0,69,0.00,,---,0.22,VWS V13.01,2013-06-24 00:42:00,
2013-06-23 19:47:00,79.1,68.1,29.16,SSW,202,0.0,0.0,69,0.00,,---,0.22,VWS V13.01,2013-06-24 00:47:00,
2013-06-23 19:52:00,79.1,68.1,29.17,SSW,202,0.0,0.0,69,0.00,,---,0.22,VWS V13.01,2013-06-24 00:52:00,
2013-06-23 19:57:00,79.1,68.1,29.17,SSW,202,0.0,0.0,69,0.00,,---,0.22,VWS V13.01,2013-06-24 00:57:00,
2013-06-23 20:02:00,79.1,68.1,29.17,SSW,202,0.0,0.0,69,0.00,,---,0.22,VWS V13.01,2013-06-24 01:02:00,
2013-06-23 20:07:00,78.9,67.9,29.17,SSW,202,0.0,0.0,69,0.00,,---,0.22,VWS V13.01,2013-06-24 01:07:00,
2013-06-23 20:12:00,78.9,67.9,29.17,SSW,202,0.0,0.0,69,0.00,,---,0.22,VWS V13.01,2013-06-24 01:12:00,
2013-06-23 20:17:00,78.6,68.0,29.17,SSW,202,0.0,0.0,70,0.00,,---,0.22,VWS V13.01,2013-06-24 01:17:00,
2013-06-23 20:22:00,78.6,68.0,29.17,SSW,202,0.0,0.0,70,0.00,,---,0.22,VWS V13.01,2013-06-24 01:22:00,
2013-06-23 20:27:00,78.6,68.0,29.17,SSW,202,0.0,0.0,70,0.00,,---,0.22,VWS V13.01,2013-06-24 01:27:00,
2013-06-23 20:32:00,78.4,67.8,29.17,SSW,202,0.0,0.0,70,0.00,,---,0.22,VWS V13.01,2013-06-24 01:32:00,
2013-06-23 20:37:00,78.2,67.6,29.18,SSW,202,0.0,0.0,70,0.00,,---,0.22,VWS V13.01,2013-06-24 01:37:00,
2013-06-23 20:42:00,78.0,67.4,29.18,SSW,202,0.0,0.0,70,0.00,,---,0.22,VWS V13.01,2013-06-24 01:42:00,
2013-06-23 20:47:00,77.9,67.8,29.18,SSW,202,0.0,0.0,71,0.00,,---,0.22,VWS V13.01,2013-06-24 01:47:00,
2013-06-23 20:52:00,77.9,67.8,29.19,SSW,202,0.0,0.0,71,0.00,,---,0.22,VWS V13.01,2013-06-24 01:52:00,
2013-06-23 20:57:00,77.7,68.0,29.19,SSW,202,0.0,0.0,72,0.00,,---,0.22,VWS V13.01,2013-06-24 01:57:00,
2013-06-23 21:03:00,77.5,67.8,29.19,SSW,202,0.0,0.0,72,0.00,,---,0.22,VWS V13.01,2013-06-24 02:03:00,
2013-06-23 21:08:00,77.3,67.6,29.19,SSW,202,0.0,0.0,72,0.00,,---,0.22,VWS V13.01,2013-06-24 02:08:00,
2013-06-23 21:13:00,77.1,67.8,29.19,SSW,202,0.0,0.0,73,0.00,,---,0.22,VWS V13.01,2013-06-24 02:13:00,
2013-06-23 21:18:00,77.0,67.7,29.19,SSW,202,0.0,0.0,73,0.00,,---,0.22,VWS V13.01,2013-06-24 02:18:00,
2013-06-23 21:23:00,76.8,67.5,29.19,SSW,202,0.0,0.0,73,0.00,,---,0.22,VWS V13.01,2013-06-24 02:23:00,
2013-06-23 21:28:00,76.6,67.3,29.19,SSW,202,0.0,0.0,73,0.00,,---,0.22,VWS V13.01,2013-06-24 02:28:00,
2013-06-23 21:33:00,76.4,67.5,29.18,SSW,202,0.0,0.0,74,0.00,,---,0.22,VWS V13.01,2013-06-24 02:33:00,
2013-06-23 21:38:00,76.1,67.2,29.19,SSW,202,0.0,0.0,74,0.00,,---,0.22,VWS V13.01,2013-06-24 02:38:00,
2013-06-23 21:43:00,75.9,67.0,29.19,SSW,202,0.0,0.0,74,0.00,,---,0.22,VWS V13.01,2013-06-24 02:43:00,
2013-06-23 21:48:00,75.7,66.8,29.19,SSW,202,0.0,0.0,74,0.00,,---,0.22,VWS V13.01,2013-06-24 02:48:00,
2013-06-23 21:53:00,75.5,66.6,29.19,SSW,202,0.0,0.0,74,0.00,,---,0.22,VWS V13.01,2013-06-24 02:53:00,
2013-06-23 21:58:00,75.3,66.8,29.20,SSW,202,0.0,0.0,75,0.00,,---,0.22,VWS V13.01,2013-06-24 02:58:00,
2013-06-23 22:03:00,75.2,66.7,29.20,SSW,202,0.0,0.0,75,0.00,,---,0.22,VWS V13.01,2013-06-24 03:03:00,
2013-06-23 22:08:00,75.0,66.6,29.20,SSE,158,0.0,0.0,75,0.00,,---,0.22,VWS V13.01,2013-06-24 03:08:00,
2013-06-23 22:13:00,74.8,66.3,29.20,SSE,158,0.0,0.0,75,0.00,,---,0.22,VWS V13.01,2013-06-24 03:13:00,
2013-06-23 22:18:00,74.4,66.0,29.20,SSE,158,0.0,0.0,75,0.00,,---,0.22,VWS V13.01,2013-06-24 03:18:00,
2013-06-23 22:24:00,74.3,66.2,29.20,SSE,158,0.0,0.0,76,0.00,,---,0.22,VWS V13.01,2013-06-24 03:24:00,
2013-06-23 22:29:00,74.1,66.1,29.21,SSE,158,0.0,0.0,76,0.00,,---,0.22,VWS V13.01,2013-06-24 03:29:00,
2013-06-23 22:34:00,73.9,66.2,29.21,SE,135,0.0,0.0,77,0.00,,---,0.22,VWS V13.01,2013-06-24 03:34:00,
2013-06-23 22:40:00,73.7,66.1,29.21,SE,135,0.0,0.0,77,0.00,,---,0.22,VWS V13.01,2013-06-24 03:40:00,
2013-06-23 22:45:00,73.7,66.1,29.21,SSE,158,0.0,0.0,77,0.00,,---,0.22,VWS V13.01,2013-06-24 03:45:00,
2013-06-23 22:50:00,73.5,66.2,29.21,SE,135,0.0,0.0,78,0.00,,---,0.22,VWS V13.01,2013-06-24 03:50:00,
2013-06-23 22:55:00,73.4,66.1,29.21,SE,135,0.0,0.0,78,0.00,,---,0.22,VWS V13.01,2013-06-24 03:55:00,
2013-06-23 23:00:00,73.2,65.9,29.22,SE,135,0.0,0.0,78,0.00,,---,0.22,VWS V13.01,2013-06-24 04:00:00,
2013-06-23 23:01:00,73.2,66.3,29.22,SE,135,0.0,0.0,79,0.00,,---,0.22,VWS V13.01,2013-06-24 04:01:00,
2013-06-23 23:02:00,73.2,66.3,29.22,SE,135,0.0,0.0,79,0.00,,---,0.22,VWS V13.01,2013-06-24 04:02:00,
2013-06-23 23:03:00,73.2,66.3,29.22,SE,135,0.0,0.0,79,0.00,,---,0.22,VWS V13.01,2013-06-24 04:03:00,
2013-06-23 23:04:00,73.2,66.3,29.22,SE,135,0.0,0.0,79,0.00,,---,0.22,VWS V13.01,2013-06-24 04:04:00,
2013-06-23 23:06:00,73.2,66.3,29.22,SE,135,0.0,0.0,79,0.00,,---,0.22,VWS V13.01,2013-06-24 04:06:00,
2013-06-23 23:11:00,73.2,66.3,29.22,SE,135,0.0,0.0,79,0.00,,---,0.22,VWS V13.01,2013-06-24 04:11:00,
2013-06-23 23:16:00,73.0,66.5,29.22,SE,135,0.0,0.0,80,0.00,,---,0.22,VWS V13.01,2013-06-24 04:16:00,
2013-06-23 23:21:00,73.0,66.5,29.22,SE,135,0.0,0.0,80,0.00,,---,0.22,VWS V13.01,2013-06-24 04:21:00,
2013-06-23 23:26:00,72.8,66.3,29.22,SE,135,0.0,0.0,80,0.00,,---,0.22,VWS V13.01,2013-06-24 04:26:00,
2013-06-23 23:31:00,72.6,65.7,29.21,SE,135,0.0,0.0,79,0.00,,---,0.22,VWS V13.01,2013-06-24 04:31:00,
2013-06-23 23:36:00,72.6,66.1,29.21,SE,135,0.0,0.0,80,0.00,,---,0.22,VWS V13.01,2013-06-24 04:36:00,
2013-06-23 23:41:00,72.5,66.0,29.21,SE,135,0.0,0.0,80,0.00,,---,0.22,VWS V13.01,2013-06-24 04:41:00,
2013-06-23 23:46:00,72.3,65.8,29.21,SE,135,0.0,0.0,80,0.00,,---,0.22,VWS V13.01,2013-06-24 04:46:00,
2013-06-23 23:51:00,72.3,65.8,29.21,SE,135,0.0,0.0,80,0.00,,---,0.22,VWS V13.01,2013-06-24 04:51:00,
2013-06-23 23:56:00,72.3,65.8,29.21,SE,135,0.0,0.0,80,0.00,,---,0.22,VWS V13.01,2013-06-24 04:56:00,